createdAt,value
2022-12-03T00:01:14.485Z,4.63
2022-12-03T00:03:41.259Z,3.73
2022-12-03T00:06:08.120Z,5.27
2022-12-03T00:08:34.764Z,3.70
2022-12-03T00:11:01.442Z,3.80
2022-12-03T00:13:28.040Z,4.70
2022-12-03T00:15:54.683Z,6.50
2022-12-03T00:18:21.344Z,5.83
2022-12-03T00:20:47.922Z,4.30
2022-12-03T00:23:14.440Z,4.97
2022-12-03T00:25:41.015Z,4.73
2022-12-03T00:28:07.886Z,4.67
2022-12-03T00:30:34.851Z,5.37
2022-12-03T00:33:01.417Z,4.27
2022-12-03T00:35:28.100Z,4.10
2022-12-03T00:37:55.957Z,5.70
2022-12-03T00:40:22.531Z,5.93
2022-12-03T00:42:49.127Z,5.17
2022-12-03T00:45:15.695Z,5.80
2022-12-03T00:47:42.284Z,4.73
2022-12-03T00:50:09.901Z,5.10
2022-12-03T00:52:36.493Z,6.63
2022-12-03T00:55:03.398Z,6.63
2022-12-03T00:57:29.934Z,6.43
2022-12-03T00:59:56.521Z,5.27
2022-12-03T01:02:25.627Z,7.83
2022-12-03T01:04:52.580Z,5.53
2022-12-03T01:07:19.391Z,6.53
2022-12-03T01:09:45.893Z,6.53
2022-12-03T01:12:12.440Z,4.47
2022-12-03T01:14:39.019Z,8.33
2022-12-03T01:17:06.841Z,5.43
2022-12-03T01:19:35.249Z,5.00
2022-12-03T01:22:02.306Z,8.60
2022-12-03T01:24:28.849Z,6.50
2022-12-03T01:26:56.715Z,5.67
2022-12-03T01:29:23.617Z,5.93
2022-12-03T01:32:08.710Z,6.40
2022-12-03T01:34:35.479Z,5.50
2022-12-03T01:37:02.193Z,5.77
2022-12-03T01:39:28.774Z,5.20
2022-12-03T01:41:56.659Z,6.33
2022-12-03T01:44:30.034Z,5.60
2022-12-03T01:46:58.474Z,5.63
2022-12-03T01:49:42.133Z,7.50
2022-12-03T01:52:21.366Z,6.80
2022-12-03T01:54:52.616Z,5.20
2022-12-03T01:57:24.667Z,6.03
2022-12-03T01:59:52.763Z,4.60
2022-12-03T02:02:23.829Z,6.13
2022-12-03T02:04:51.263Z,6.43
2022-12-03T02:07:34.950Z,4.63
2022-12-03T02:10:03.947Z,5.60
2022-12-03T02:12:56.327Z,5.17
2022-12-03T02:15:23.277Z,5.27
2022-12-03T02:17:50.317Z,5.73
2022-12-03T02:20:17.094Z,9.97
2022-12-03T02:23:01.945Z,5.43
2022-12-03T02:25:32.303Z,5.07
2022-12-03T02:28:00.438Z,6.45
2022-12-03T02:30:29.117Z,4.77
2022-12-03T02:32:56.665Z,5.03
2022-12-03T02:35:28.594Z,7.27
2022-12-03T02:37:59.423Z,5.67
2022-12-03T02:40:30.959Z,5.40
2022-12-03T02:43:01.179Z,5.57
2022-12-03T02:45:31.690Z,5.97
2022-12-03T02:48:05.939Z,6.93
2022-12-03T02:50:34.551Z,5.70
2022-12-03T02:53:05.645Z,6.77
2022-12-03T02:58:05.400Z,5.63
2022-12-03T03:00:32.872Z,5.40
2022-12-03T03:03:00.597Z,6.27
2022-12-03T03:05:27.326Z,4.83
2022-12-03T03:07:54.311Z,5.87
2022-12-03T03:10:23.491Z,4.77
2022-12-03T03:12:51.676Z,4.33
2022-12-03T03:15:18.308Z,5.40
2022-12-03T03:17:44.984Z,5.40
2022-12-03T03:20:12.337Z,4.93
2022-12-03T03:22:41.031Z,5.57
2022-12-03T03:25:10.911Z,5.77
2022-12-03T03:27:38.818Z,6.60
2022-12-03T03:30:06.242Z,5.50
2022-12-03T03:32:33.839Z,6.00
2022-12-03T03:35:00.810Z,5.73
2022-12-03T03:37:28.433Z,6.20
2022-12-03T03:39:55.462Z,5.20
2022-12-03T03:42:22.806Z,6.00
2022-12-03T03:44:49.900Z,5.77
2022-12-03T03:47:17.575Z,6.97
2022-12-03T03:49:44.622Z,5.73
2022-12-03T03:52:11.810Z,8.03
2022-12-03T03:54:39.367Z,5.77
2022-12-03T03:57:06.350Z,9.70
2022-12-03T03:59:32.926Z,5.13
2022-12-03T04:01:59.478Z,6.90
2022-12-03T04:04:35.234Z,4.97
2022-12-03T04:07:02.093Z,6.40
2022-12-03T04:09:28.610Z,8.87
2022-12-03T04:12:13.733Z,7.30
2022-12-03T04:14:40.326Z,6.60
2022-12-03T04:17:06.874Z,6.73
2022-12-03T04:19:33.540Z,6.43
2022-12-03T04:22:18.739Z,7.13
2022-12-03T04:24:45.313Z,6.03
2022-12-03T04:27:30.552Z,8.13
2022-12-03T04:29:57.097Z,6.97
2022-12-03T04:32:42.220Z,5.47
2022-12-03T04:35:28.493Z,7.73
2022-12-03T04:37:55.097Z,6.20
2022-12-03T04:40:40.239Z,7.37
2022-12-03T04:43:06.747Z,6.23
2022-12-03T04:45:33.359Z,5.77
2022-12-03T04:47:59.996Z,9.17
2022-12-03T04:50:26.519Z,6.37
2022-12-03T04:52:53.240Z,7.27
2022-12-03T04:55:19.815Z,7.30
2022-12-03T04:57:46.360Z,8.90
2022-12-03T05:00:13.673Z,8.33
2022-12-03T05:02:40.638Z,6.57
2022-12-03T05:05:07.660Z,12.43
2022-12-03T05:07:34.240Z,6.77
2022-12-03T05:10:00.881Z,7.47
2022-12-03T05:12:27.438Z,9.67
2022-12-03T05:14:54.220Z,5.93
2022-12-03T05:17:20.992Z,7.23
2022-12-03T05:20:06.103Z,7.33
2022-12-03T05:22:32.666Z,7.57
2022-12-03T05:24:59.215Z,7.63
2022-12-03T05:27:25.906Z,8.17
2022-12-03T05:29:53.067Z,8.40
2022-12-03T05:32:20.271Z,16.50
2022-12-03T05:34:46.943Z,9.93
2022-12-03T05:37:13.633Z,9.43
2022-12-03T05:39:40.177Z,8.40
2022-12-03T05:42:25.473Z,9.00
2022-12-03T05:44:52.103Z,9.80
2022-12-03T05:47:18.917Z,8.83
2022-12-03T05:49:45.526Z,10.43
2022-12-03T05:52:12.100Z,9.03
2022-12-03T05:54:38.703Z,8.97
2022-12-03T05:57:05.318Z,9.43
2022-12-03T05:59:31.857Z,8.93
2022-12-03T06:01:58.453Z,8.17
2022-12-03T06:04:25.013Z,8.67
2022-12-03T06:06:51.531Z,9.07
2022-12-03T06:09:18.101Z,12.37
2022-12-03T06:11:44.697Z,11.07
2022-12-03T06:14:11.239Z,9.77
2022-12-03T06:16:37.824Z,8.67
2022-12-03T06:19:04.453Z,10.67
2022-12-03T06:21:31.017Z,15.77
2022-12-03T06:23:57.580Z,10.87
2022-12-03T06:26:24.143Z,9.50
2022-12-03T06:28:50.630Z,8.20
2022-12-03T06:31:17.341Z,10.47
2022-12-03T06:33:43.978Z,8.77
2022-12-03T06:36:10.604Z,10.83
2022-12-03T06:38:37.174Z,12.93
2022-12-03T06:41:03.861Z,10.03
2022-12-03T06:43:31.034Z,10.93
2022-12-03T06:45:57.716Z,10.67
2022-12-03T06:48:24.331Z,9.20
2022-12-03T06:50:50.859Z,12.17
2022-12-03T06:53:17.431Z,11.77
2022-12-03T06:55:43.997Z,11.40
2022-12-03T06:58:10.658Z,12.30
2022-12-03T07:00:37.289Z,10.77
2022-12-03T07:03:04.052Z,11.33
2022-12-03T07:05:30.639Z,11.13
2022-12-03T07:07:57.332Z,13.17
2022-12-03T07:10:23.981Z,11.67
2022-12-03T07:12:50.513Z,14.23
2022-12-03T07:15:17.230Z,14.33
2022-12-03T07:17:44.213Z,14.57
2022-12-03T07:20:11.122Z,15.07
2022-12-03T07:22:38.317Z,11.93
2022-12-03T07:25:06.204Z,13.50
2022-12-03T07:27:32.759Z,12.27
2022-12-03T07:29:59.317Z,12.70
2022-12-03T07:32:25.881Z,14.40
2022-12-03T07:34:52.783Z,15.37
2022-12-03T07:37:23.082Z,12.83
2022-12-03T07:39:50.247Z,11.20
2022-12-03T07:42:16.818Z,15.43
2022-12-03T07:44:43.355Z,14.90
2022-12-03T07:47:10.172Z,14.47
2022-12-03T07:49:36.782Z,12.87
2022-12-03T07:52:03.395Z,14.13
2022-12-03T07:54:29.963Z,12.47
2022-12-03T07:57:01.207Z,13.77
2022-12-03T07:59:28.807Z,13.53
2022-12-03T08:01:55.579Z,13.33
2022-12-03T08:04:22.313Z,15.30
2022-12-03T08:06:49.228Z,13.73
2022-12-03T08:09:16.362Z,10.57
2022-12-03T08:11:45.450Z,11.63
2022-12-03T08:14:20.667Z,16.07
2022-12-03T08:16:48.928Z,11.17
2022-12-03T08:19:17.092Z,14.97
2022-12-03T08:21:44.582Z,10.27
2022-12-03T08:24:20.207Z,12.10
2022-12-03T08:26:48.435Z,15.83
2022-12-03T08:29:19.887Z,12.33
2022-12-03T08:31:57.649Z,15.27
2022-12-03T08:34:28.117Z,13.33
2022-12-03T08:37:14.917Z,12.70
2022-12-03T08:39:48.411Z,14.40
2022-12-03T08:42:41.967Z,12.17
2022-12-03T08:45:35.146Z,14.30
2022-12-03T08:48:35.001Z,14.93
2022-12-03T08:51:04.102Z,12.90
2022-12-03T08:53:50.855Z,14.13
2022-12-03T08:56:22.215Z,8.40
2022-12-03T08:59:02.926Z,14.60
2022-12-03T09:01:37.963Z,14.75
2022-12-03T09:04:21.797Z,14.93
2022-12-03T09:06:48.678Z,12.93
2022-12-03T09:09:15.539Z,9.50
2022-12-03T09:11:43.322Z,15.10
2022-12-03T09:14:16.731Z,13.17
2022-12-03T09:16:44.928Z,10.77
2022-12-03T09:19:11.614Z,13.53
2022-12-03T09:21:38.136Z,14.33
2022-12-03T09:24:04.981Z,11.67
2022-12-03T09:26:31.505Z,12.80
2022-12-03T09:28:58.074Z,16.17
2022-12-03T09:31:24.794Z,19.40
2022-12-03T09:33:51.347Z,13.67
2022-12-03T09:36:17.872Z,14.80
2022-12-03T09:38:47.747Z,16.00
2022-12-03T09:41:15.004Z,15.02
2022-12-03T09:46:29.732Z,13.80
2022-12-03T09:48:56.801Z,11.87
2022-12-03T09:51:27.180Z,14.80
2022-12-03T09:53:53.856Z,11.25
2022-12-03T09:56:23.370Z,13.32
2022-12-03T09:58:50.522Z,11.73
2022-12-03T10:01:17.923Z,10.52
2022-12-03T10:03:47.906Z,14.13
2022-12-03T10:06:23.758Z,12.93
2022-12-03T10:08:53.574Z,9.55
2022-12-03T10:11:22.539Z,11.75
2022-12-03T10:13:50.146Z,10.73
2022-12-03T10:16:20.780Z,11.48
2022-12-03T10:18:53.481Z,11.55
2022-12-03T10:21:24.425Z,10.93
2022-12-03T10:24:16.849Z,15.13
2022-12-03T10:26:45.187Z,14.83
2022-12-03T10:29:17.914Z,13.43
2022-12-03T10:31:45.044Z,14.15
2022-12-03T10:34:11.897Z,8.68
2022-12-03T10:36:38.528Z,11.32
2022-12-03T10:39:14.466Z,9.40
2022-12-03T10:41:42.968Z,11.70
2022-12-03T10:44:25.589Z,11.63
2022-12-03T10:47:07.718Z,9.30
2022-12-03T10:49:34.689Z,10.03
2022-12-03T10:52:02.083Z,11.30
2022-12-03T10:54:30.943Z,12.23
2022-12-03T10:56:58.357Z,14.03
2022-12-03T10:59:30.465Z,10.73
2022-12-03T11:01:57.217Z,12.10
2022-12-03T11:04:32.499Z,13.70
2022-12-03T11:06:59.326Z,15.20
2022-12-03T11:09:30.008Z,11.43
2022-12-03T11:12:04.395Z,8.18
2022-12-03T11:15:05.172Z,12.67
2022-12-03T11:17:52.384Z,16.02
2022-12-03T11:20:24.959Z,17.23
2022-12-03T11:22:53.020Z,14.03
2022-12-03T11:25:25.584Z,12.93
2022-12-03T11:28:10.499Z,10.20
2022-12-03T11:30:59.185Z,11.17
2022-12-03T11:33:28.713Z,9.77
2022-12-03T11:36:04.468Z,11.70
2022-12-03T11:38:37.119Z,11.97
2022-12-03T11:41:15.826Z,10.23
2022-12-03T11:44:21.304Z,9.17
2022-12-03T11:46:48.067Z,10.07
2022-12-03T11:49:32.152Z,10.10
2022-12-03T11:52:01.297Z,12.97
2022-12-03T11:54:28.099Z,10.43
2022-12-03T11:56:56.149Z,12.17
2022-12-03T11:59:22.748Z,11.67
2022-12-03T12:01:49.317Z,12.77
2022-12-03T12:04:38.004Z,8.95
2022-12-03T12:07:04.648Z,12.40
2022-12-03T12:09:50.894Z,10.10
2022-12-03T12:12:19.601Z,11.98
2022-12-03T12:14:46.285Z,12.23
2022-12-03T12:17:33.134Z,11.07
2022-12-03T12:20:27.059Z,12.02
2022-12-03T12:22:55.059Z,8.60
2022-12-03T12:25:30.600Z,10.57
2022-12-03T12:27:57.584Z,8.83
2022-12-03T12:30:24.201Z,9.45
2022-12-03T12:32:52.748Z,9.57
2022-12-03T12:35:22.269Z,9.03
2022-12-03T12:38:11.043Z,10.83
2022-12-03T12:40:40.134Z,9.73
2022-12-03T12:43:24.066Z,12.97
2022-12-03T12:45:54.667Z,9.63
2022-12-03T12:48:22.739Z,10.80
2022-12-03T12:51:00.083Z,11.65
2022-12-03T12:53:33.010Z,8.50
2022-12-03T12:56:11.800Z,17.17
2022-12-03T12:58:38.399Z,11.10
2022-12-03T13:01:11.303Z,10.37
2022-12-03T13:03:39.707Z,10.77
2022-12-03T13:06:06.625Z,10.45
2022-12-03T13:08:44.236Z,8.75
2022-12-03T13:11:42.294Z,9.43
2022-12-03T13:14:15.108Z,8.40
2022-12-03T13:16:41.752Z,12.23
2022-12-03T13:19:23.665Z,10.82
2022-12-03T13:21:52.680Z,12.27
2022-12-03T13:24:32.212Z,10.18
2022-12-03T13:27:02.600Z,10.83
2022-12-03T13:29:29.191Z,9.35
2022-12-03T13:31:58.871Z,8.93
2022-12-03T13:34:28.491Z,10.60
2022-12-03T13:36:58.508Z,11.52
2022-12-03T13:39:35.432Z,10.43
2022-12-03T13:42:26.767Z,11.68
2022-12-03T13:47:22.927Z,11.17
2022-12-03T13:49:59.078Z,13.87
2022-12-03T13:52:26.148Z,8.87
2022-12-03T13:54:55.302Z,9.23
2022-12-03T13:57:22.026Z,10.63
2022-12-03T13:59:48.933Z,9.90
2022-12-03T14:02:15.715Z,9.10
2022-12-03T14:04:42.461Z,10.63
2022-12-03T14:07:09.006Z,11.87
2022-12-03T14:09:35.569Z,12.63
2022-12-03T14:12:20.804Z,11.87
2022-12-03T14:14:47.382Z,10.55
2022-12-03T14:17:13.949Z,10.47
2022-12-03T14:19:40.573Z,10.17
2022-12-03T14:22:09.227Z,15.47
2022-12-03T14:24:36.831Z,11.03
2022-12-03T14:27:03.568Z,12.13
2022-12-03T14:29:30.079Z,11.73
2022-12-03T14:31:56.789Z,10.63
2022-12-03T14:34:23.415Z,10.87
2022-12-03T14:36:50.113Z,14.23
2022-12-03T14:39:16.808Z,11.40
2022-12-03T14:42:02.172Z,13.60
2022-12-03T14:44:28.733Z,10.47
2022-12-03T14:46:57.272Z,12.03
2022-12-03T14:49:24.326Z,14.80
2022-12-03T14:51:50.863Z,13.07
2022-12-03T14:54:17.392Z,9.60
2022-12-03T14:56:43.950Z,13.30
2022-12-03T14:59:10.653Z,13.23
2022-12-03T15:01:37.358Z,12.83
2022-12-03T15:04:04.163Z,12.60
2022-12-03T15:06:30.979Z,12.10
2022-12-03T15:08:57.565Z,16.07
2022-12-03T15:11:24.320Z,12.00
2022-12-03T15:13:50.972Z,13.63
2022-12-03T15:16:17.671Z,15.33
2022-12-03T15:18:44.364Z,11.37
2022-12-03T15:21:10.926Z,11.73
2022-12-03T15:23:37.730Z,17.23
2022-12-03T15:26:04.391Z,10.13
2022-12-03T15:28:30.897Z,11.63
2022-12-03T15:30:57.604Z,13.60
2022-12-03T15:33:24.213Z,15.85
2022-12-03T15:35:50.777Z,13.47
2022-12-03T15:38:17.575Z,12.83
2022-12-03T15:40:44.193Z,14.30
2022-12-03T15:43:11.151Z,10.97
2022-12-03T15:45:38.171Z,12.53
2022-12-03T15:48:05.096Z,14.50
2022-12-03T15:50:34.587Z,10.07
2022-12-03T15:53:05.178Z,16.03
2022-12-03T15:55:31.746Z,16.23
2022-12-03T15:57:58.481Z,11.33
2022-12-03T16:00:25.401Z,14.43
2022-12-03T16:02:53.065Z,11.40
2022-12-03T16:05:20.309Z,13.87
2022-12-03T16:07:46.967Z,17.37
2022-12-03T16:10:13.696Z,18.33
2022-12-03T16:12:40.341Z,16.23
2022-12-03T16:15:07.551Z,16.37
2022-12-03T16:17:34.164Z,15.63
2022-12-03T16:20:00.825Z,18.97
2022-12-03T16:22:27.480Z,14.33
2022-12-03T16:24:54.049Z,16.90
2022-12-03T16:27:25.340Z,17.90
2022-12-03T16:30:08.380Z,15.77
2022-12-03T16:32:35.052Z,15.50
2022-12-03T16:35:01.676Z,15.13
2022-12-03T16:37:28.289Z,13.13
2022-12-03T16:39:55.006Z,14.50
2022-12-03T16:42:21.856Z,14.63
2022-12-03T16:45:14.513Z,13.17
2022-12-03T16:47:41.057Z,14.63
2022-12-03T16:50:11.594Z,12.93
2022-12-03T16:52:40.827Z,16.13
2022-12-03T16:55:07.887Z,15.47
2022-12-03T16:57:34.412Z,14.47
2022-12-03T17:00:01.179Z,15.67
2022-12-03T17:02:27.942Z,15.83
2022-12-03T17:04:54.918Z,12.77
2022-12-03T17:07:21.547Z,15.57
2022-12-03T17:09:49.023Z,15.93
2022-12-03T17:12:15.667Z,14.27
2022-12-03T17:14:42.274Z,13.20
2022-12-03T17:17:08.819Z,15.70
2022-12-03T17:19:35.435Z,14.17
2022-12-03T17:22:02.145Z,10.83
2022-12-03T17:24:28.704Z,13.40
2022-12-03T17:26:55.268Z,15.70
2022-12-03T17:29:21.839Z,13.80
2022-12-03T17:31:48.437Z,12.27
2022-12-03T17:34:15.141Z,18.20
2022-12-03T17:36:41.752Z,16.43
2022-12-03T17:39:08.607Z,15.07
2022-12-03T17:41:35.194Z,14.70
2022-12-03T17:44:05.983Z,26.93
2022-12-03T17:46:35.509Z,18.40
2022-12-03T17:49:02.190Z,15.73
2022-12-03T17:51:28.762Z,15.60
2022-12-03T17:53:55.350Z,18.77
2022-12-03T17:56:21.940Z,17.27
2022-12-03T17:58:48.461Z,18.73
2022-12-03T18:01:14.991Z,21.50
2022-12-03T18:03:41.668Z,19.40
2022-12-03T18:06:08.325Z,20.00
2022-12-03T18:08:34.886Z,17.73
2022-12-03T18:11:01.506Z,18.40
2022-12-03T18:13:28.199Z,25.07
2022-12-03T18:15:54.867Z,19.23
2022-12-03T18:18:21.540Z,29.40
2022-12-03T18:20:48.214Z,21.23
2022-12-03T18:23:14.826Z,18.27
2022-12-03T18:25:42.036Z,20.03
2022-12-03T18:28:08.583Z,24.93
2022-12-03T18:30:36.323Z,18.03
2022-12-03T18:33:02.856Z,17.60
2022-12-03T18:35:29.463Z,17.33
2022-12-03T18:37:56.072Z,20.10
2022-12-03T18:40:24.806Z,19.27
2022-12-03T18:42:51.327Z,21.00
2022-12-03T18:45:17.878Z,18.23
2022-12-03T18:47:44.889Z,15.18
2022-12-03T18:50:12.007Z,22.63
2022-12-03T18:52:39.493Z,17.53
2022-12-03T18:55:07.173Z,17.58
2022-12-03T18:57:33.783Z,16.23
2022-12-03T19:00:00.467Z,19.70
2022-12-03T19:05:14.250Z,15.13
2022-12-03T19:07:40.923Z,17.87
2022-12-03T19:10:08.722Z,16.07
2022-12-03T19:12:35.737Z,19.75
2022-12-03T19:15:04.794Z,15.53
2022-12-03T19:17:31.834Z,17.73
2022-12-03T19:19:58.570Z,18.40
2022-12-03T19:22:25.233Z,14.20
2022-12-03T19:24:51.867Z,21.27
2022-12-03T19:27:18.564Z,17.27
2022-12-03T19:29:48.688Z,14.70
2022-12-03T19:32:15.396Z,24.27
2022-12-03T19:34:42.051Z,22.30
2022-12-03T19:37:08.670Z,14.63
2022-12-03T19:39:35.215Z,18.47
2022-12-03T19:42:01.764Z,18.63
2022-12-03T19:44:28.340Z,20.43
2022-12-03T19:46:55.031Z,19.27
2022-12-03T19:49:22.376Z,17.97
2022-12-03T19:51:49.389Z,19.13
2022-12-03T19:54:16.766Z,20.13
2022-12-03T19:56:44.183Z,16.83
2022-12-03T19:59:12.719Z,16.95
2022-12-03T20:01:40.850Z,20.33
2022-12-03T20:04:08.426Z,25.13
2022-12-03T20:06:39.715Z,22.00
2022-12-03T20:09:12.476Z,20.20
2022-12-03T20:11:41.122Z,19.90
2022-12-03T20:14:10.547Z,19.73
2022-12-03T20:16:37.193Z,20.30
2022-12-03T20:19:07.050Z,25.77
2022-12-03T20:21:36.022Z,23.43
2022-12-03T20:24:02.757Z,22.30
2022-12-03T20:26:29.680Z,19.40
2022-12-03T20:28:57.189Z,23.63
2022-12-03T20:31:27.036Z,29.30
2022-12-03T20:33:57.411Z,16.33
2022-12-03T20:36:25.147Z,23.05
2022-12-03T20:38:59.522Z,19.40
2022-12-03T20:41:26.774Z,23.93
2022-12-03T20:43:54.100Z,20.27
2022-12-03T20:46:29.369Z,28.80
2022-12-03T20:48:56.904Z,22.60
2022-12-03T20:51:27.207Z,28.23
2022-12-03T20:53:54.578Z,28.90
2022-12-03T20:56:24.675Z,33.73
2022-12-03T20:58:51.277Z,32.03
2022-12-03T21:01:20.528Z,29.23
2022-12-03T21:03:48.306Z,24.63
2022-12-03T21:06:15.579Z,25.30
2022-12-03T21:08:43.449Z,28.83
2022-12-03T21:11:16.000Z,25.53
2022-12-03T21:13:44.096Z,23.27
2022-12-03T21:16:16.800Z,26.67
2022-12-03T21:18:44.245Z,23.87
2022-12-03T21:21:13.058Z,22.83
2022-12-03T21:23:39.717Z,27.53
2022-12-03T21:26:10.299Z,26.53
2022-12-03T21:28:38.538Z,24.95
2022-12-03T21:31:08.451Z,24.60
2022-12-03T21:33:36.147Z,21.40
2022-12-03T21:36:03.199Z,23.50
2022-12-03T21:38:30.096Z,23.77
2022-12-03T21:40:57.631Z,21.23
2022-12-03T21:43:25.024Z,28.77
2022-12-03T21:45:52.004Z,23.53
2022-12-03T21:48:18.829Z,25.23
2022-12-03T21:50:46.008Z,23.23
2022-12-03T21:53:13.235Z,27.23
2022-12-03T21:55:40.769Z,23.97
2022-12-03T21:58:08.788Z,23.47
2022-12-03T22:00:35.723Z,27.07
2022-12-03T22:03:02.440Z,25.77
2022-12-03T22:05:29.072Z,19.30
2022-12-03T22:07:55.639Z,24.63
2022-12-03T22:10:22.297Z,24.60
2022-12-03T22:12:48.909Z,26.40
2022-12-03T22:15:19.219Z,23.00
2022-12-03T22:17:46.766Z,21.25
2022-12-03T22:20:14.132Z,29.23
2022-12-03T22:22:40.730Z,22.23
2022-12-03T22:25:07.958Z,25.57
2022-12-03T22:27:34.574Z,21.63
2022-12-03T22:30:01.145Z,27.90
2022-12-03T22:32:27.767Z,23.37
2022-12-03T22:34:54.323Z,25.17
2022-12-03T22:37:20.846Z,29.53
2022-12-03T22:39:47.395Z,29.70
2022-12-03T22:42:13.933Z,27.47
2022-12-03T22:44:40.525Z,24.93
2022-12-03T22:47:07.117Z,25.17
2022-12-03T22:49:33.665Z,23.03
2022-12-03T22:52:00.176Z,29.37
2022-12-03T22:54:26.744Z,25.27
2022-12-03T22:56:53.271Z,23.17
2022-12-03T22:59:19.890Z,19.97
2022-12-03T23:01:46.503Z,25.03
2022-12-03T23:04:13.217Z,28.47
2022-12-03T23:06:39.889Z,27.37
2022-12-03T23:09:07.601Z,25.70
2022-12-03T23:11:34.408Z,30.23
2022-12-03T23:14:01.017Z,29.53
2022-12-03T23:16:31.187Z,26.27
2022-12-03T23:18:59.541Z,26.48
2022-12-03T23:21:30.265Z,30.63
2022-12-03T23:24:01.383Z,24.75
2022-12-03T23:26:28.495Z,27.17
2022-12-03T23:28:55.084Z,28.50
2022-12-03T23:31:29.831Z,36.17
2022-12-03T23:33:57.603Z,25.73
2022-12-03T23:36:25.981Z,30.70
2022-12-03T23:38:52.829Z,25.40
2022-12-03T23:41:20.921Z,32.03
2022-12-03T23:43:47.809Z,27.40
2022-12-03T23:46:17.710Z,33.10
2022-12-03T23:48:45.473Z,26.80
2022-12-03T23:51:15.329Z,28.37
2022-12-03T23:53:42.468Z,27.93
2022-12-03T23:56:11.829Z,30.47
2022-12-03T23:58:38.741Z,29.37
